sensor_id;sensor_type;location;lat;lon;timestamp;pressure;altitude;pressure_sealevel;temperature;humidity
26823;BME280;14852;51.910;8.878;2023-04-01T00:00:58;97650.72;;;12.82;63.32
26823;BME280;14852;51.910;8.878;2023-04-01T00:03:26;97656.75;;;12.83;63.14
26823;BME280;14852;51.910;8.878;2023-04-01T00:05:56;97655.94;;;12.82;63.24
26823;BME280;14852;51.910;8.878;2023-04-01T00:08:23;97661.16;;;12.82;62.84
26823;BME280;14852;51.910;8.878;2023-04-01T00:10:50;97665.03;;;12.78;63.01
26823;BME280;14852;51.910;8.878;2023-04-01T00:13:16;97652.16;;;12.77;63.30
26823;BME280;14852;51.910;8.878;2023-04-01T00:15:42;97656.53;;;12.76;63.51
26823;BME280;14852;51.910;8.878;2023-04-01T00:18:08;97654.63;;;12.78;63.17
26823;BME280;14852;51.910;8.878;2023-04-01T00:20:34;97658.56;;;12.82;62.90
26823;BME280;14852;51.910;8.878;2023-04-01T00:37:15;97652.84;;;12.79;63.17
26823;BME280;14852;51.910;8.878;2023-04-01T00:39:41;97659.69;;;12.80;63.06
26823;BME280;14852;51.910;8.878;2023-04-01T00:42:10;97653.66;;;12.79;63.00
26823;BME280;14852;51.910;8.878;2023-04-01T00:44:38;97649.69;;;12.75;62.94
26823;BME280;14852;51.910;8.878;2023-04-01T00:47:04;97646.41;;;12.73;62.94
26823;BME280;14852;51.910;8.878;2023-04-01T00:49:35;97645.56;;;12.73;63.39
26823;BME280;14852;51.910;8.878;2023-04-01T00:52:09;97649.47;;;12.68;63.51
26823;BME280;14852;51.910;8.878;2023-04-01T00:54:37;97641.63;;;12.68;63.47
26823;BME280;14852;51.910;8.878;2023-04-01T00:57:15;97639.69;;;12.70;63.02
26823;BME280;14852;51.910;8.878;2023-04-01T00:59:50;97643.13;;;12.71;62.91
26823;BME280;14852;51.910;8.878;2023-04-01T01:02:19;97650.28;;;12.69;63.29
26823;BME280;14852;51.910;8.878;2023-04-01T01:04:45;97653.69;;;12.69;63.17
26823;BME280;14852;51.910;8.878;2023-04-01T01:07:52;97647.06;;;12.75;63.32
26823;BME280;14852;51.910;8.878;2023-04-01T01:10:39;97645.06;;;12.69;63.01
26823;BME280;14852;51.910;8.878;2023-04-01T01:13:31;97637.81;;;12.63;63.18
26823;BME280;14852;51.910;8.878;2023-04-01T01:16:29;97642.63;;;12.58;63.28
26823;BME280;14852;51.910;8.878;2023-04-01T01:19:33;97643.34;;;12.50;63.53
26823;BME280;14852;51.910;8.878;2023-04-01T01:22:45;97645.72;;;12.44;63.82
26823;BME280;14852;51.910;8.878;2023-04-01T01:25:43;97646.00;;;12.41;63.40
26823;BME280;14852;51.910;8.878;2023-04-01T01:32:07;97640.38;;;12.45;63.78
26823;BME280;14852;51.910;8.878;2023-04-01T01:34:49;97639.16;;;12.40;63.45
26823;BME280;14852;51.910;8.878;2023-04-01T01:37:25;97635.44;;;12.42;63.60
26823;BME280;14852;51.910;8.878;2023-04-01T01:40:06;97638.31;;;12.39;63.65
26823;BME280;14852;51.910;8.878;2023-04-01T01:42:44;97631.88;;;12.43;63.75
26823;BME280;14852;51.910;8.878;2023-04-01T01:45:18;97638.88;;;12.43;63.62
26823;BME280;14852;51.910;8.878;2023-04-01T01:47:52;97632.56;;;12.45;63.58
26823;BME280;14852;51.910;8.878;2023-04-01T01:50:21;97627.63;;;12.42;63.47
26823;BME280;14852;51.910;8.878;2023-04-01T01:53:01;97635.16;;;12.45;63.64
26823;BME280;14852;51.910;8.878;2023-04-01T01:55:40;97627.88;;;12.49;63.61
26823;BME280;14852;51.910;8.878;2023-04-01T01:58:22;97633.38;;;12.46;63.52
26823;BME280;14852;51.910;8.878;2023-04-01T02:00:59;97635.16;;;12.45;63.84
26823;BME280;14852;51.910;8.878;2023-04-01T02:03:37;97625.84;;;12.43;63.75
26823;BME280;14852;51.910;8.878;2023-04-01T02:06:16;97631.88;;;12.43;63.65
26823;BME280;14852;51.910;8.878;2023-04-01T02:09:00;97627.19;;;12.47;63.46
26823;BME280;14852;51.910;8.878;2023-04-01T02:11:59;97626.22;;;12.48;63.51
26823;BME280;14852;51.910;8.878;2023-04-01T02:14:54;97629.50;;;12.50;63.33
26823;BME280;14852;51.910;8.878;2023-04-01T02:17:27;97620.06;;;12.49;63.18
26823;BME280;14852;51.910;8.878;2023-04-01T02:20:09;97629.38;;;12.51;63.48
26823;BME280;14852;51.910;8.878;2023-04-01T02:22:54;97631.28;;;12.49;63.67
26823;BME280;14852;51.910;8.878;2023-04-01T02:25:29;97632.13;;;12.50;63.24
26823;BME280;14852;51.910;8.878;2023-04-01T02:27:59;97623.75;;;12.46;63.41
26823;BME280;14852;51.910;8.878;2023-04-01T02:30:28;97633.66;;;12.43;63.72
26823;BME280;14852;51.910;8.878;2023-04-01T02:32:57;97626.81;;;12.42;63.62
26823;BME280;14852;51.910;8.878;2023-04-01T02:35:26;97632.03;;;12.42;63.30
26823;BME280;14852;51.910;8.878;2023-04-01T02:37:56;97631.47;;;12.38;63.50
26823;BME280;14852;51.910;8.878;2023-04-01T02:40:25;97632.75;;;12.34;63.70
26823;BME280;14852;51.910;8.878;2023-04-01T02:42:54;97626.84;;;12.32;63.59
26823;BME280;14852;51.910;8.878;2023-04-01T02:45:22;97632.06;;;12.32;63.80
26823;BME280;14852;51.910;8.878;2023-04-01T02:47:48;97632.34;;;12.29;63.87
26823;BME280;14852;51.910;8.878;2023-04-01T02:50:14;97634.13;;;12.28;64.03
26823;BME280;14852;51.910;8.878;2023-04-01T02:52:44;97630.28;;;12.32;63.55
26823;BME280;14852;51.910;8.878;2023-04-01T02:55:13;97628.78;;;12.30;63.67
26823;BME280;14852;51.910;8.878;2023-04-01T02:57:44;97627.94;;;12.29;63.83
26823;BME280;14852;51.910;8.878;2023-04-01T03:00:11;97633.16;;;12.29;63.74
26823;BME280;14852;51.910;8.878;2023-04-01T03:02:38;97630.69;;;12.28;63.60
26823;BME280;14852;51.910;8.878;2023-04-01T03:05:05;97634.94;;;12.29;63.65
26823;BME280;14852;51.910;8.878;2023-04-01T03:07:31;97636.88;;;12.27;63.95
26823;BME280;14852;51.910;8.878;2023-04-01T03:09:57;97642.91;;;12.27;64.04
26823;BME280;14852;51.910;8.878;2023-04-01T03:12:23;97640.97;;;12.29;64.03
26823;BME280;14852;51.910;8.878;2023-04-01T03:14:51;97642.06;;;12.27;63.75
26823;BME280;14852;51.910;8.878;2023-04-01T03:17:17;97646.31;;;12.28;63.92
26823;BME280;14852;51.910;8.878;2023-04-01T03:19:43;97639.47;;;12.27;63.78
26823;BME280;14852;51.910;8.878;2023-04-01T03:22:11;97644.69;;;12.27;64.06
26823;BME280;14852;51.910;8.878;2023-04-01T03:24:38;97642.22;;;12.25;63.95
26823;BME280;14852;51.910;8.878;2023-04-01T03:27:03;97634.53;;;12.24;63.90
26823;BME280;14852;51.910;8.878;2023-04-01T03:29:30;97643.34;;;12.23;64.19
26823;BME280;14852;51.910;8.878;2023-04-01T03:31:58;97637.13;;;12.24;63.75
26823;BME280;14852;51.910;8.878;2023-04-01T03:34:25;97638.28;;;12.21;64.21
26823;BME280;14852;51.910;8.878;2023-04-01T03:36:54;97633.88;;;12.22;63.92
26823;BME280;14852;51.910;8.878;2023-04-01T03:39:20;97637.13;;;12.24;63.84
26823;BME280;14852;51.910;8.878;2023-04-01T03:41:47;97644.81;;;12.25;63.87
26823;BME280;14852;51.910;8.878;2023-04-01T03:44:15;97642.50;;;12.22;64.03
26823;BME280;14852;51.910;8.878;2023-04-01T03:46:42;97643.34;;;12.23;63.70
26823;BME280;14852;51.910;8.878;2023-04-01T03:49:09;97645.78;;;12.24;64.09
26823;BME280;14852;51.910;8.878;2023-04-01T03:51:42;97641.38;;;12.25;64.16
26823;BME280;14852;51.910;8.878;2023-04-01T03:54:11;97639.91;;;12.22;64.02
26823;BME280;14852;51.910;8.878;2023-04-01T03:56:39;97652.94;;;12.22;63.66
26823;BME280;14852;51.910;8.878;2023-04-01T03:59:07;97643.34;;;12.23;64.01
26823;BME280;14852;51.910;8.878;2023-04-01T04:01:35;97639.91;;;12.22;63.70
26823;BME280;14852;51.910;8.878;2023-04-01T04:04:07;97633.88;;;12.22;63.99
26823;BME280;14852;51.910;8.878;2023-04-01T04:06:35;97650.47;;;12.21;64.00
26823;BME280;14852;51.910;8.878;2023-04-01T04:09:10;97642.66;;;12.21;63.93
26823;BME280;14852;51.910;8.878;2023-04-01T04:11:39;97644.44;;;12.20;63.77
26823;BME280;14852;51.910;8.878;2023-04-01T04:14:10;97652.94;;;12.22;64.07
26823;BME280;14852;51.910;8.878;2023-04-01T04:16:37;97649.06;;;12.26;63.94
26823;BME280;14852;51.910;8.878;2023-04-01T04:19:04;97653.31;;;12.27;64.02
26823;BME280;14852;51.910;8.878;2023-04-01T04:21:33;97649.06;;;12.26;64.06
26823;BME280;14852;51.910;8.878;2023-04-01T04:24:02;97660.97;;;12.29;63.95
26823;BME280;14852;51.910;8.878;2023-04-01T04:26:49;97651.38;;;12.29;63.99
26823;BME280;14852;51.910;8.878;2023-04-01T04:29:14;97659.75;;;12.33;63.96
26823;BME280;14852;51.910;8.878;2023-04-01T04:31:41;97654.81;;;12.30;63.69
26823;BME280;14852;51.910;8.878;2023-04-01T04:34:07;97661.81;;;12.29;64.10
26823;BME280;14852;51.910;8.878;2023-04-01T04:36:35;97666.19;;;12.29;63.89
26823;BME280;14852;51.910;8.878;2023-04-01T04:39:01;97663.03;;;12.25;63.89
26823;BME280;14852;51.910;8.878;2023-04-01T04:41:28;97664.81;;;12.25;63.84
26823;BME280;14852;51.910;8.878;2023-04-01T04:43:56;97659.75;;;12.23;63.84
26823;BME280;14852;51.910;8.878;2023-04-01T04:46:23;97662.53;;;12.22;63.93
26823;BME280;14852;51.910;8.878;2023-04-01T04:48:56;97660.88;;;12.21;64.33
26823;BME280;14852;51.910;8.878;2023-04-01T04:51:22;97671.28;;;12.21;63.90
26823;BME280;14852;51.910;8.878;2023-04-01T04:53:48;97670.75;;;12.17;64.02
26823;BME280;14852;51.910;8.878;2023-04-01T04:56:22;97661.97;;;12.18;64.06
26823;BME280;14852;51.910;8.878;2023-04-01T04:59:02;97666.50;;;12.16;64.01
26823;BME280;14852;51.910;8.878;2023-04-01T05:01:40;97665.53;;;12.17;64.18
26823;BME280;14852;51.910;8.878;2023-04-01T05:04:05;97669.38;;;12.13;64.22
26823;BME280;14852;51.910;8.878;2023-04-01T05:06:31;97668.72;;;12.11;64.40
26823;BME280;14852;51.910;8.878;2023-04-01T05:09:00;97665.56;;;12.08;64.31
26823;BME280;14852;51.910;8.878;2023-04-01T05:11:26;97676.66;;;12.10;64.04
26823;BME280;14852;51.910;8.878;2023-04-01T05:13:52;97670.09;;;12.06;64.13
26823;BME280;14852;51.910;8.878;2023-04-01T05:16:20;97665.44;;;12.09;64.23
26823;BME280;14852;51.910;8.878;2023-04-01T05:18:47;97663.78;;;12.08;64.33
26823;BME280;14852;51.910;8.878;2023-04-01T05:21:14;97664.59;;;12.09;64.04
26823;BME280;14852;51.910;8.878;2023-04-01T05:23:41;97668.03;;;12.09;64.50
26823;BME280;14852;51.910;8.878;2023-04-01T05:26:14;97672.09;;;12.12;64.19
26823;BME280;14852;51.910;8.878;2023-04-01T05:28:40;97677.72;;;12.17;64.02
26823;BME280;14852;51.910;8.878;2023-04-01T05:31:07;97673.06;;;12.20;64.17
26823;BME280;14852;51.910;8.878;2023-04-01T05:33:37;97679.94;;;12.21;64.11
26823;BME280;14852;51.910;8.878;2023-04-01T05:36:16;97679.47;;;12.26;64.09
26823;BME280;14852;51.910;8.878;2023-04-01T05:38:42;97681.53;;;12.32;64.05
26823;BME280;14852;51.910;8.878;2023-04-01T05:41:16;97689.22;;;12.33;64.17
26823;BME280;14852;51.910;8.878;2023-04-01T05:43:44;97691.50;;;12.37;63.94
26823;BME280;14852;51.910;8.878;2023-04-01T05:46:29;97688.78;;;12.38;63.90
26823;BME280;14852;51.910;8.878;2023-04-01T05:49:08;97694.66;;;12.40;63.87
26823;BME280;14852;51.910;8.878;2023-04-01T05:51:34;97689.59;;;12.39;63.79
26823;BME280;14852;51.910;8.878;2023-04-01T05:54:05;97692.19;;;12.39;63.79
26823;BME280;14852;51.910;8.878;2023-04-01T05:56:31;97689.22;;;12.33;64.00
26823;BME280;14852;51.910;8.878;2023-04-01T05:58:58;97688.94;;;12.27;64.00
26823;BME280;14852;51.910;8.878;2023-04-01T06:01:24;97700.44;;;12.24;64.18
26823;BME280;14852;51.910;8.878;2023-04-01T06:03:53;97688.56;;;12.22;64.10
26823;BME280;14852;51.910;8.878;2023-04-01T06:06:29;97694.28;;;12.25;64.04
26823;BME280;14852;51.910;8.878;2023-04-01T06:09:17;97693.47;;;12.25;64.23
26823;BME280;14852;51.910;8.878;2023-04-01T06:12:37;97689.75;;;12.27;64.48
26823;BME280;14852;51.910;8.878;2023-04-01T06:15:30;97692.22;;;12.29;64.29
26823;BME280;14852;51.910;8.878;2023-04-01T06:22:16;97703.06;;;12.34;64.00
26823;BME280;14852;51.910;8.878;2023-04-01T06:29:58;97702.78;;;12.27;63.97
26823;BME280;14852;51.910;8.878;2023-04-01T06:32:45;97707.44;;;12.24;63.93
26823;BME280;14852;51.910;8.878;2023-04-01T06:55:55;97718.50;;;12.45;63.82
26823;BME280;14852;51.910;8.878;2023-04-01T06:58:44;97715.75;;;12.47;63.80
26823;BME280;14852;51.910;8.878;2023-04-01T07:01:22;97718.63;;;12.53;64.03
26823;BME280;14852;51.910;8.878;2023-04-01T07:04:00;97722.41;;;12.59;64.16
26823;BME280;14852;51.910;8.878;2023-04-01T07:06:42;97722.00;;;12.63;63.70
26823;BME280;14852;51.910;8.878;2023-04-01T07:09:16;97726.94;;;12.66;64.12
26823;BME280;14852;51.910;8.878;2023-04-01T07:15:24;97726.22;;;12.74;63.79
26823;BME280;14852;51.910;8.878;2023-04-01T07:18:02;97730.47;;;12.75;63.63
26823;BME280;14852;51.910;8.878;2023-04-01T07:20:35;97729.06;;;12.81;63.70
26823;BME280;14852;51.910;8.878;2023-04-01T07:23:08;97734.66;;;12.86;63.72
26823;BME280;14852;51.910;8.878;2023-04-01T07:26:01;97736.03;;;12.90;63.68
26823;BME280;14852;51.910;8.878;2023-04-01T07:28:32;97742.72;;;12.92;63.67
26823;BME280;14852;51.910;8.878;2023-04-01T07:31:49;97748.75;;;12.93;63.98
26823;BME280;14852;51.910;8.878;2023-04-01T07:34:28;97753.16;;;12.92;63.60
26823;BME280;14852;51.910;8.878;2023-04-01T07:37:21;97749.91;;;12.90;63.85
26823;BME280;14852;51.910;8.878;2023-04-01T07:40:10;97749.16;;;12.98;63.79
26823;BME280;14852;51.910;8.878;2023-04-01T07:48:55;97764.47;;;13.11;63.72
26823;BME280;14852;51.910;8.878;2023-04-01T07:51:50;97760.38;;;13.08;63.88
26823;BME280;14852;51.910;8.878;2023-04-01T08:15:08;97787.19;;;13.28;64.08
26823;BME280;14852;51.910;8.878;2023-04-01T08:21:21;97790.41;;;13.49;63.49
26823;BME280;14852;51.910;8.878;2023-04-01T08:23:51;97795.56;;;13.59;63.55
26823;BME280;14852;51.910;8.878;2023-04-01T08:26:42;97797.41;;;13.66;63.46
26823;BME280;14852;51.910;8.878;2023-04-01T08:30:06;97799.06;;;13.67;63.61
26823;BME280;14852;51.910;8.878;2023-04-01T08:32:25;97801.59;;;13.77;63.44
26823;BME280;14852;51.910;8.878;2023-04-01T08:35:22;97801.06;;;13.73;63.40
26823;BME280;14852;51.910;8.878;2023-04-01T08:37:52;97810.41;;;13.76;63.51
26823;BME280;14852;51.910;8.878;2023-04-01T08:56:47;97825.78;;;13.97;63.52
26823;BME280;14852;51.910;8.878;2023-04-01T08:59:49;97820.72;;;13.95;63.06
26823;BME280;14852;51.910;8.878;2023-04-01T09:06:06;97824.09;;;14.05;63.31
26823;BME280;14852;51.910;8.878;2023-04-01T09:21:14;97830.19;;;14.32;63.10
26823;BME280;14852;51.910;8.878;2023-04-01T09:27:05;97836.69;;;14.28;62.99
26823;BME280;14852;51.910;8.878;2023-04-01T09:40:13;97848.09;;;14.27;63.46
26823;BME280;14852;51.910;8.878;2023-04-01T09:45:57;97851.78;;;14.16;63.68
26823;BME280;14852;51.910;8.878;2023-04-01T09:51:49;97859.28;;;14.19;63.75
26823;BME280;14852;51.910;8.878;2023-04-01T10:00:52;97861.41;;;14.51;63.09
26823;BME280;14852;51.910;8.878;2023-04-01T10:18:46;97866.16;;;15.59;61.61
26823;BME280;14852;51.910;8.878;2023-04-01T10:34:38;97872.38;;;16.00;61.72
26823;BME280;14852;51.910;8.878;2023-04-01T10:40:53;97875.06;;;15.74;61.87
26823;BME280;14852;51.910;8.878;2023-04-01T10:44:01;97881.44;;;15.72;62.30
26823;BME280;14852;51.910;8.878;2023-04-01T10:53:49;97886.59;;;15.98;61.75
26823;BME280;14852;51.910;8.878;2023-04-01T11:17:22;97889.22;;;15.98;61.56
26823;BME280;14852;51.910;8.878;2023-04-01T11:23:10;97887.72;;;15.95;61.10
26823;BME280;14852;51.910;8.878;2023-04-01T11:25:55;97891.38;;;16.02;61.62
26823;BME280;14852;51.910;8.878;2023-04-01T11:29:22;97905.75;;;15.98;61.45
26823;BME280;14852;51.910;8.878;2023-04-01T11:41:36;97902.69;;;16.11;60.54
26823;BME280;14852;51.910;8.878;2023-04-01T11:44:29;97905.09;;;16.04;61.07
26823;BME280;14852;51.910;8.878;2023-04-01T11:47:48;97913.47;;;16.00;61.00
26823;BME280;14852;51.910;8.878;2023-04-01T11:50:53;97913.75;;;15.88;60.80
26823;BME280;14852;51.910;8.878;2023-04-01T11:56:29;97916.16;;;15.82;61.08
26823;BME280;14852;51.910;8.878;2023-04-01T11:59:24;97920.63;;;15.89;61.08
26823;BME280;14852;51.910;8.878;2023-04-01T12:14:34;97939.28;;;15.94;61.00
26823;BME280;14852;51.910;8.878;2023-04-01T12:20:36;97948.34;;;16.00;60.88
26823;BME280;14852;51.910;8.878;2023-04-01T12:23:54;97946.34;;;15.94;61.08
26823;BME280;14852;51.910;8.878;2023-04-01T12:32:34;97956.19;;;15.92;61.03
26823;BME280;14852;51.910;8.878;2023-04-01T13:03:26;97985.34;;;15.71;61.43
26823;BME280;14852;51.910;8.878;2023-04-01T13:21:03;97999.78;;;16.09;60.92
26823;BME280;14852;51.910;8.878;2023-04-01T13:31:47;98012.81;;;16.35;60.66
26823;BME280;14852;51.910;8.878;2023-04-01T13:37:54;98018.00;;;16.27;61.06
26823;BME280;14852;51.910;8.878;2023-04-01T13:44:02;98023.69;;;16.48;60.43
26823;BME280;14852;51.910;8.878;2023-04-01T14:02:00;98038.72;;;17.05;59.86
26823;BME280;14852;51.910;8.878;2023-04-01T14:11:10;98038.41;;;17.24;59.88
26823;BME280;14852;51.910;8.878;2023-04-01T14:17:29;98052.00;;;17.11;60.01
26823;BME280;14852;51.910;8.878;2023-04-01T14:23:42;98064.25;;;16.70;60.00
26823;BME280;14852;51.910;8.878;2023-04-01T14:39:10;98081.63;;;16.37;60.42
26823;BME280;14852;51.910;8.878;2023-04-01T14:45:02;98085.66;;;16.23;60.41
26823;BME280;14852;51.910;8.878;2023-04-01T14:48:00;98095.09;;;16.16;60.66
26823;BME280;14852;51.910;8.878;2023-04-01T14:50:51;98091.28;;;16.03;60.99
26823;BME280;14852;51.910;8.878;2023-04-01T14:53:31;98104.31;;;15.94;61.51
26823;BME280;14852;51.910;8.878;2023-04-01T14:56:04;98104.56;;;15.83;61.48
26823;BME280;14852;51.910;8.878;2023-04-01T14:58:59;98109.31;;;15.80;61.54
26823;BME280;14852;51.910;8.878;2023-04-01T15:01:37;98115.69;;;15.77;61.29
26823;BME280;14852;51.910;8.878;2023-04-01T15:16:41;98131.25;;;15.43;61.16
26823;BME280;14852;51.910;8.878;2023-04-01T15:19:41;98133.19;;;15.41;61.24
26823;BME280;14852;51.910;8.878;2023-04-01T15:22:46;98133.53;;;15.46;61.30
26823;BME280;14852;51.910;8.878;2023-04-01T15:26:19;98144.53;;;15.50;60.86
26823;BME280;14852;51.910;8.878;2023-04-01T15:35:39;98155.63;;;15.44;60.97
26823;BME280;14852;51.910;8.878;2023-04-01T15:38:34;98158.31;;;15.34;60.57
26823;BME280;14852;51.910;8.878;2023-04-01T15:44:24;98165.56;;;15.23;61.34
26823;BME280;14852;51.910;8.878;2023-04-01T15:46:50;98175.63;;;15.17;61.26
26823;BME280;14852;51.910;8.878;2023-04-01T15:49:41;98174.38;;;15.21;61.25
26823;BME280;14852;51.910;8.878;2023-04-01T15:58:24;98189.97;;;15.13;61.35
26823;BME280;14852;51.910;8.878;2023-04-01T16:01:37;98190.66;;;15.15;61.22
26823;BME280;14852;51.910;8.878;2023-04-01T16:04:27;98199.47;;;15.14;61.37
26823;BME280;14852;51.910;8.878;2023-04-01T16:07:10;98204.41;;;15.17;61.37
26823;BME280;14852;51.910;8.878;2023-04-01T16:10:13;98211.16;;;15.20;61.56
26823;BME280;14852;51.910;8.878;2023-04-01T16:13:21;98212.94;;;15.19;61.74
26823;BME280;14852;51.910;8.878;2023-04-01T16:16:07;98211.72;;;15.14;61.46
26823;BME280;14852;51.910;8.878;2023-04-01T16:19:01;98216.66;;;15.17;61.57
26823;BME280;14852;51.910;8.878;2023-04-01T16:22:08;98216.81;;;15.15;61.57
26823;BME280;14852;51.910;8.878;2023-04-01T16:28:12;98225.25;;;15.09;61.91
26823;BME280;14852;51.910;8.878;2023-04-01T16:30:54;98231.81;;;15.13;61.67
26823;BME280;14852;51.910;8.878;2023-04-01T16:34:04;98237.38;;;15.10;61.82
26823;BME280;14852;51.910;8.878;2023-04-01T16:36:54;98241.25;;;15.06;61.56
26823;BME280;14852;51.910;8.878;2023-04-01T16:42:16;98242.25;;;14.96;61.96
26823;BME280;14852;51.910;8.878;2023-04-01T16:48:15;98254.44;;;14.77;62.39
26823;BME280;14852;51.910;8.878;2023-04-01T16:51:04;98270.69;;;14.71;62.27
26823;BME280;14852;51.910;8.878;2023-04-01T16:53:52;98277.59;;;14.63;62.24
26823;BME280;14852;51.910;8.878;2023-04-01T16:56:42;98288.38;;;14.50;62.39
26823;BME280;14852;51.910;8.878;2023-04-01T16:59:26;98283.03;;;14.42;62.72
26823;BME280;14852;51.910;8.878;2023-04-01T17:10:53;98299.47;;;14.33;62.77
26823;BME280;14852;51.910;8.878;2023-04-01T17:13:40;98309.41;;;14.29;62.86
26823;BME280;14852;51.910;8.878;2023-04-01T17:19:42;98316.69;;;14.26;62.89
26823;BME280;14852;51.910;8.878;2023-04-01T17:23:08;98325.50;;;14.25;63.11
26823;BME280;14852;51.910;8.878;2023-04-01T17:25:52;98331.66;;;14.24;62.91
26823;BME280;14852;51.910;8.878;2023-04-01T17:28:50;98336.34;;;14.20;62.82
26823;BME280;14852;51.910;8.878;2023-04-01T17:31:46;98348.19;;;14.14;62.81
26823;BME280;14852;51.910;8.878;2023-04-01T17:34:53;98347.34;;;14.04;63.25
26823;BME280;14852;51.910;8.878;2023-04-01T17:41:08;98371.88;;;13.73;63.24
26823;BME280;14852;51.910;8.878;2023-04-01T17:50:19;98397.78;;;13.15;63.77
26823;BME280;14852;51.910;8.878;2023-04-01T17:53:23;98409.81;;;12.95;64.16
26823;BME280;14852;51.910;8.878;2023-04-01T17:56:14;98427.44;;;12.82;64.23
26823;BME280;14852;51.910;8.878;2023-04-01T17:59:30;98419.66;;;12.71;64.42
26823;BME280;14852;51.910;8.878;2023-04-01T18:02:21;98419.72;;;12.60;64.05
26823;BME280;14852;51.910;8.878;2023-04-01T18:17:25;98452.88;;;12.26;64.77
26823;BME280;14852;51.910;8.878;2023-04-01T18:20:11;98467.78;;;12.24;64.83
26823;BME280;14852;51.910;8.878;2023-04-01T18:22:57;98474.81;;;12.12;64.97
26823;BME280;14852;51.910;8.878;2023-04-01T18:25:36;98483.22;;;12.05;65.08
26823;BME280;14852;51.910;8.878;2023-04-01T18:31:21;98508.22;;;11.96;65.27
26823;BME280;14852;51.910;8.878;2023-04-01T18:37:25;98512.94;;;11.91;64.79
26823;BME280;14852;51.910;8.878;2023-04-01T18:40:34;98521.69;;;11.90;64.96
26823;BME280;14852;51.910;8.878;2023-04-01T18:43:34;98529.59;;;11.88;64.80
26823;BME280;14852;51.910;8.878;2023-04-01T18:52:03;98549.25;;;11.81;64.91
26823;BME280;14852;51.910;8.878;2023-04-01T18:57:49;98568.16;;;11.72;64.97
26823;BME280;14852;51.910;8.878;2023-04-01T19:00:43;98568.47;;;11.68;64.71
26823;BME280;14852;51.910;8.878;2023-04-01T19:03:41;98581.75;;;11.65;64.94
26823;BME280;14852;51.910;8.878;2023-04-01T19:06:32;98588.44;;;11.56;64.78
26823;BME280;14852;51.910;8.878;2023-04-01T19:09:24;98586.75;;;11.44;65.07
26823;BME280;14852;51.910;8.878;2023-04-01T19:12:15;98594.63;;;11.31;65.42
26823;BME280;14852;51.910;8.878;2023-04-01T19:20:43;98623.81;;;11.00;65.64
26823;BME280;14852;51.910;8.878;2023-04-01T19:23:44;98631.00;;;10.96;65.62
26823;BME280;14852;51.910;8.878;2023-04-01T19:29:27;98637.47;;;10.91;65.46
26823;BME280;14852;51.910;8.878;2023-04-01T19:32:11;98642.88;;;10.87;65.89
26823;BME280;14852;51.910;8.878;2023-04-01T19:35:12;98656.81;;;10.86;65.79
26823;BME280;14852;51.910;8.878;2023-04-01T19:38:01;98655.50;;;10.81;65.56
26823;BME280;14852;51.910;8.878;2023-04-01T19:40:54;98653.84;;;10.80;65.58
26823;BME280;14852;51.910;8.878;2023-04-01T19:46:43;98668.06;;;10.74;65.28
26823;BME280;14852;51.910;8.878;2023-04-01T19:49:50;98673.41;;;10.73;65.49
26823;BME280;14852;51.910;8.878;2023-04-01T19:52:37;98688.84;;;10.74;65.19
26823;BME280;14852;51.910;8.878;2023-04-01T19:55:24;98686.38;;;10.73;65.44
26823;BME280;14852;51.910;8.878;2023-04-01T19:58:39;98704.44;;;10.74;65.44
26823;BME280;14852;51.910;8.878;2023-04-01T20:01:22;98706.34;;;10.72;65.04
26823;BME280;14852;51.910;8.878;2023-04-01T20:04:04;98709.34;;;10.66;65.19
26823;BME280;14852;51.910;8.878;2023-04-01T20:07:07;98724.09;;;10.66;65.07
26823;BME280;14852;51.910;8.878;2023-04-01T20:10:07;98735.13;;;10.69;65.23
26823;BME280;14852;51.910;8.878;2023-04-01T20:13:22;98733.34;;;10.70;65.36
26823;BME280;14852;51.910;8.878;2023-04-01T20:16:06;98754.03;;;10.59;64.93
26823;BME280;14852;51.910;8.878;2023-04-01T20:18:52;98744.16;;;10.51;64.98
26823;BME280;14852;51.910;8.878;2023-04-01T20:21:43;98757.78;;;10.42;64.95
26823;BME280;14852;51.910;8.878;2023-04-01T20:24:20;98767.03;;;10.33;65.22
26823;BME280;14852;51.910;8.878;2023-04-01T20:27:04;98769.91;;;10.29;65.07
26823;BME280;14852;51.910;8.878;2023-04-01T20:39:20;98806.19;;;10.16;64.91
26823;BME280;14852;51.910;8.878;2023-04-01T20:44:46;98811.41;;;10.16;65.08
26823;BME280;14852;51.910;8.878;2023-04-01T20:50:31;98813.56;;;10.09;64.84
26823;BME280;14852;51.910;8.878;2023-04-01T20:53:20;98824.97;;;10.07;65.14
26823;BME280;14852;51.910;8.878;2023-04-01T20:58:43;98835.69;;;10.02;65.06
26823;BME280;14852;51.910;8.878;2023-04-01T21:01:33;98843.25;;;10.05;65.11
26823;BME280;14852;51.910;8.878;2023-04-01T21:04:27;98847.38;;;9.95;65.10
26823;BME280;14852;51.910;8.878;2023-04-01T21:07:44;98851.28;;;9.88;65.03
26823;BME280;14852;51.910;8.878;2023-04-01T21:10:37;98864.53;;;9.84;65.19
26823;BME280;14852;51.910;8.878;2023-04-01T21:13:33;98864.22;;;9.75;64.94
26823;BME280;14852;51.910;8.878;2023-04-01T21:19:52;98875.84;;;9.56;65.11
26823;BME280;14852;51.910;8.878;2023-04-01T21:25:43;98888.50;;;9.46;65.35
26823;BME280;14852;51.910;8.878;2023-04-01T21:31:48;98917.59;;;9.51;65.22
26823;BME280;14852;51.910;8.878;2023-04-01T21:37:45;98908.81;;;9.39;65.36
26823;BME280;14852;51.910;8.878;2023-04-01T21:41:06;98920.03;;;9.40;64.98
26823;BME280;14852;51.910;8.878;2023-04-01T21:47:08;98934.56;;;9.28;65.18
26823;BME280;14852;51.910;8.878;2023-04-01T21:57:17;98946.41;;;9.18;65.46
26823;BME280;14852;51.910;8.878;2023-04-01T22:08:45;98985.88;;;8.93;65.28
26823;BME280;14852;51.910;8.878;2023-04-01T22:14:30;98996.31;;;8.92;65.17
26823;BME280;14852;51.910;8.878;2023-04-01T22:17:06;98994.00;;;8.87;65.33
26823;BME280;14852;51.910;8.878;2023-04-01T22:23:27;99011.72;;;8.79;65.00
26823;BME280;14852;51.910;8.878;2023-04-01T22:26:10;99019.94;;;8.71;65.09
26823;BME280;14852;51.910;8.878;2023-04-01T22:31:59;99027.16;;;8.51;65.18
26823;BME280;14852;51.910;8.878;2023-04-01T22:37:23;99046.13;;;8.35;65.80